createdAt,value
2018-02-20T00:00:42.437Z,90.20
2018-02-20T00:01:42.450Z,90.11
2018-02-20T00:02:42.458Z,90.20
2018-02-20T00:03:42.469Z,89.83
2018-02-20T00:04:42.478Z,90.49
2018-02-20T00:05:42.487Z,90.11
2018-02-20T00:06:42.497Z,90.01
2018-02-20T00:07:42.507Z,90.01
2018-02-20T00:08:42.518Z,90.25
2018-02-20T00:09:42.528Z,90.11
2018-02-20T00:10:42.538Z,90.11
2018-02-20T00:11:42.549Z,89.97
2018-02-20T00:12:42.558Z,90.11
2018-02-20T00:13:42.569Z,90.30
2018-02-20T00:14:42.578Z,90.20
2018-02-20T00:15:42.588Z,90.49
2018-02-20T00:16:42.598Z,90.49
2018-02-20T00:17:42.607Z,90.68
2018-02-20T00:18:42.619Z,90.11
2018-02-20T00:19:42.628Z,90.49
2018-02-20T00:20:42.637Z,90.39
2018-02-20T00:21:42.647Z,90.30
2018-02-20T00:22:42.661Z,90.86
2018-02-20T00:23:42.668Z,90.68
2018-02-20T00:24:42.676Z,91.05
2018-02-20T00:25:42.688Z,90.96
2018-02-20T00:26:42.697Z,90.68
2018-02-20T00:27:42.713Z,91.15
2018-02-20T00:28:42.717Z,91.53
2018-02-20T00:29:42.727Z,91.34
2018-02-20T00:30:42.738Z,91.24
2018-02-20T00:31:42.748Z,91.15
2018-02-20T00:32:42.758Z,91.34
2018-02-20T00:33:42.767Z,91.34
2018-02-20T00:34:42.778Z,90.77
2018-02-20T00:35:42.787Z,91.24
2018-02-20T00:36:42.796Z,91.05
2018-02-20T00:37:42.806Z,91.34
2018-02-20T00:38:42.816Z,90.96
2018-02-20T00:39:42.826Z,90.96
2018-02-20T00:40:42.836Z,91.43
2018-02-20T00:41:42.846Z,91.91
2018-02-20T00:42:42.856Z,91.91
2018-02-20T00:43:42.866Z,91.72
2018-02-20T00:44:42.873Z,91.53
2018-02-20T00:45:42.886Z,91.72
2018-02-20T00:46:42.897Z,91.81
2018-02-20T00:47:42.905Z,91.62
2018-02-20T00:48:42.915Z,91.62
2018-02-20T00:49:42.925Z,91.72
2018-02-20T00:50:42.934Z,91.72
2018-02-20T00:51:42.945Z,91.34
2018-02-20T00:52:42.953Z,91.62
2018-02-20T00:53:42.965Z,91.72
2018-02-20T00:54:42.975Z,91.34
2018-02-20T00:55:42.988Z,91.43
2018-02-20T00:56:42.993Z,91.62
2018-02-20T00:57:43.004Z,91.62
2018-02-20T00:58:43.013Z,91.53
2018-02-20T00:59:43.023Z,92.00
2018-02-20T01:00:43.033Z,91.81
2018-02-20T01:01:43.043Z,91.62
2018-02-20T01:02:43.054Z,91.81
2018-02-20T01:03:43.062Z,91.72
2018-02-20T01:04:43.072Z,92.29
2018-02-20T01:05:43.082Z,92.19
2018-02-20T01:06:43.090Z,91.62
2018-02-20T01:07:43.101Z,91.53
2018-02-20T01:08:43.110Z,91.43
2018-02-20T01:09:43.131Z,91.24
2018-02-20T01:10:43.131Z,91.34
2018-02-20T01:11:43.141Z,91.24
2018-02-20T01:12:43.149Z,91.24
2018-02-20T01:13:43.160Z,91.34
2018-02-20T01:14:43.170Z,92.10
2018-02-20T01:15:43.179Z,91.53
2018-02-20T01:16:43.207Z,90.96
2018-02-20T01:17:43.199Z,90.96
2018-02-20T01:18:43.209Z,91.43
2018-02-20T01:19:43.219Z,90.77
2018-02-20T01:20:43.228Z,90.96
2018-02-20T01:21:43.238Z,91.15
2018-02-20T01:22:43.254Z,91.05
2018-02-20T01:23:43.259Z,90.96
2018-02-20T01:24:43.266Z,90.96
2018-02-20T01:25:43.277Z,91.24
2018-02-20T01:26:43.287Z,91.34
2018-02-20T01:27:43.296Z,91.34
2018-02-20T01:28:43.305Z,91.43
2018-02-20T01:29:43.316Z,91.05
2018-02-20T01:30:43.326Z,90.96
2018-02-20T01:31:43.335Z,91.05
2018-02-20T01:32:43.345Z,90.96
2018-02-20T01:33:43.355Z,91.15
2018-02-20T01:34:43.364Z,90.68
2018-02-20T01:35:43.375Z,90.77
2018-02-20T01:36:43.384Z,90.68
2018-02-20T01:37:43.393Z,90.58
2018-02-20T01:38:43.408Z,90.39
2018-02-20T01:39:43.412Z,90.39
2018-02-20T01:40:43.420Z,90.39
2018-02-20T01:41:43.430Z,90.39
2018-02-20T01:42:43.440Z,90.49
2018-02-20T01:43:43.451Z,90.20
2018-02-20T01:44:43.460Z,90.49
2018-02-20T01:45:43.470Z,90.30
2018-02-20T01:46:43.481Z,90.68
2018-02-20T01:47:43.492Z,90.77
2018-02-20T01:48:43.499Z,90.58
2018-02-20T01:49:43.509Z,90.86
2018-02-20T01:50:43.518Z,90.86
2018-02-20T01:51:43.529Z,91.05
2018-02-20T01:52:43.537Z,91.24
2018-02-20T01:53:43.548Z,91.05
2018-02-20T01:54:43.557Z,90.86
2018-02-20T01:55:43.567Z,90.77
2018-02-20T01:56:43.577Z,91.34
2018-02-20T01:57:43.589Z,91.05
2018-02-20T01:58:43.597Z,91.34
2018-02-20T01:59:43.606Z,91.62
2018-02-20T02:00:43.616Z,91.15
2018-02-20T02:01:43.627Z,91.72
2018-02-20T02:02:43.635Z,91.72
2018-02-20T02:03:43.644Z,91.72
2018-02-20T02:04:43.654Z,91.81
2018-02-20T02:05:43.665Z,91.72
2018-02-20T02:06:43.674Z,92.00
2018-02-20T02:07:43.684Z,92.00
2018-02-20T02:08:43.693Z,92.19
2018-02-20T02:09:43.704Z,92.10
2018-02-20T02:10:43.712Z,92.00
2018-02-20T02:11:43.723Z,92.19
2018-02-20T02:12:43.734Z,92.38
2018-02-20T02:13:43.740Z,92.19
2018-02-20T02:14:43.751Z,92.47
2018-02-20T02:15:43.759Z,92.85
2018-02-20T02:16:43.771Z,92.47
2018-02-20T02:17:43.780Z,92.66
2018-02-20T02:18:43.791Z,92.47
2018-02-20T02:19:43.799Z,92.38
2018-02-20T02:20:43.816Z,92.66
2018-02-20T02:21:43.818Z,92.19
2018-02-20T02:22:43.829Z,92.47
2018-02-20T02:23:43.838Z,92.38
2018-02-20T02:24:43.851Z,92.57
2018-02-20T02:25:43.856Z,92.38
2018-02-20T02:26:43.867Z,92.76
2018-02-20T02:27:43.876Z,93.42
2018-02-20T02:28:43.885Z,93.42
2018-02-20T02:29:43.893Z,92.85
2018-02-20T02:30:43.907Z,92.57
2018-02-20T02:31:43.914Z,92.66
2018-02-20T02:32:43.924Z,93.32
2018-02-20T02:33:43.932Z,93.32
2018-02-20T02:34:43.942Z,93.23
2018-02-20T02:35:43.952Z,93.51
2018-02-20T02:36:43.961Z,93.23
2018-02-20T02:37:43.970Z,93.13
2018-02-20T02:38:43.980Z,93.61
2018-02-20T02:39:43.991Z,93.80
2018-02-20T02:40:44.048Z,93.51
2018-02-20T02:41:44.010Z,93.23
2018-02-20T02:42:44.019Z,92.66
2018-02-20T02:43:44.027Z,93.42
2018-02-20T02:44:44.038Z,93.23
2018-02-20T02:45:44.051Z,93.61
2018-02-20T02:46:44.056Z,92.76
2018-02-20T02:47:44.067Z,92.76
2018-02-20T02:48:44.074Z,92.94
2018-02-20T02:49:44.088Z,92.76
2018-02-20T02:50:44.097Z,92.66
2018-02-20T02:51:44.107Z,91.91
2018-02-20T02:52:44.113Z,92.38
2018-02-20T02:53:44.123Z,92.19
2018-02-20T02:54:44.132Z,92.19
2018-02-20T02:55:44.144Z,92.29
2018-02-20T02:56:44.151Z,92.66
2018-02-20T02:57:44.161Z,92.38
2018-02-20T02:58:44.171Z,92.57
2018-02-20T02:59:44.182Z,92.57
2018-02-20T03:00:44.189Z,92.85
2018-02-20T03:01:44.256Z,92.38
2018-02-20T03:02:44.208Z,92.57
2018-02-20T03:03:44.221Z,93.51
2018-02-20T03:04:44.228Z,93.37
2018-02-20T03:05:44.243Z,93.23
2018-02-20T03:06:44.248Z,93.75
2018-02-20T03:07:44.258Z,93.66
2018-02-20T03:08:44.265Z,93.51
2018-02-20T03:09:44.276Z,93.47
2018-02-20T03:10:44.285Z,93.56
2018-02-20T03:11:44.295Z,93.28
2018-02-20T03:12:44.303Z,93.75
2018-02-20T03:13:44.314Z,93.75
2018-02-20T03:14:44.322Z,93.56
2018-02-20T03:15:44.332Z,93.37
2018-02-20T03:16:44.340Z,93.84
2018-02-20T03:17:44.351Z,94.03
2018-02-20T03:18:44.362Z,93.56
2018-02-20T03:19:44.372Z,94.03
2018-02-20T03:20:44.380Z,93.84
2018-02-20T03:21:44.390Z,94.32
2018-02-20T03:22:44.400Z,94.22
2018-02-20T03:23:44.409Z,94.03
2018-02-20T03:24:44.418Z,94.32
2018-02-20T03:25:44.427Z,94.03
2018-02-20T03:26:44.435Z,94.32
2018-02-20T03:27:44.447Z,94.22
2018-02-20T03:28:44.455Z,93.94
2018-02-20T03:29:44.464Z,93.18
2018-02-20T03:30:44.475Z,93.28
2018-02-20T03:31:44.485Z,93.94
2018-02-20T03:32:44.491Z,93.94
2018-02-20T03:33:44.502Z,93.94
2018-02-20T03:34:44.514Z,93.37
2018-02-20T03:35:44.552Z,94.03
2018-02-20T03:36:44.530Z,93.94
2018-02-20T03:37:44.539Z,93.37
2018-02-20T03:38:44.549Z,93.37
2018-02-20T03:39:44.560Z,93.66
2018-02-20T03:40:44.566Z,93.66
2018-02-20T03:41:44.577Z,94.22
2018-02-20T03:42:44.590Z,94.41
2018-02-20T03:43:44.594Z,94.41
2018-02-20T03:44:44.603Z,94.32
2018-02-20T03:45:44.613Z,94.22
2018-02-20T03:46:44.624Z,94.79
2018-02-20T03:47:44.632Z,94.51
2018-02-20T03:48:44.641Z,94.60
2018-02-20T03:49:44.652Z,94.22
2018-02-20T03:50:44.661Z,94.22
2018-02-20T03:51:44.680Z,94.70
2018-02-20T03:52:44.681Z,94.79
2018-02-20T03:53:44.689Z,94.60
2018-02-20T03:54:44.698Z,94.89
2018-02-20T03:55:44.708Z,94.22
2018-02-20T03:56:44.716Z,94.32
2018-02-20T03:57:44.727Z,94.89
2018-02-20T03:58:44.735Z,94.41
2018-02-20T03:59:44.745Z,94.79
2018-02-20T04:00:44.752Z,94.41
2018-02-20T04:01:44.763Z,94.22
2018-02-20T04:02:44.773Z,94.03
2018-02-20T04:03:44.782Z,94.03
2018-02-20T04:04:44.791Z,94.79
2018-02-20T04:05:44.803Z,94.22
2018-02-20T04:06:44.809Z,94.32
2018-02-20T04:07:44.918Z,94.79
2018-02-20T04:08:44.827Z,94.89
2018-02-20T04:09:44.836Z,94.41
2018-02-20T04:10:44.847Z,94.79
2018-02-20T04:11:44.859Z,94.41
2018-02-20T04:12:44.865Z,93.84
2018-02-20T04:13:44.877Z,94.41
2018-02-20T04:14:44.883Z,93.84
2018-02-20T04:15:44.893Z,93.84
2018-02-20T04:16:44.900Z,94.03
2018-02-20T04:17:44.912Z,94.32
2018-02-20T04:18:44.921Z,94.32
2018-02-20T04:19:44.930Z,93.75
2018-02-20T04:20:44.937Z,94.32
2018-02-20T04:21:44.948Z,93.84
2018-02-20T04:22:44.959Z,93.75
2018-02-20T04:23:44.967Z,93.84
2018-02-20T04:24:44.975Z,93.56
2018-02-20T04:25:44.984Z,93.94
2018-02-20T04:26:44.994Z,93.18
2018-02-20T04:27:45.006Z,93.66
2018-02-20T04:28:45.013Z,93.56
2018-02-20T04:29:45.024Z,93.37
2018-02-20T04:30:45.032Z,93.56
2018-02-20T04:31:45.042Z,93.94
2018-02-20T04:32:45.050Z,94.13
2018-02-20T04:33:45.061Z,94.22
2018-02-20T04:34:45.070Z,94.13
2018-02-20T04:35:45.079Z,93.94
2018-02-20T04:36:45.087Z,93.84
2018-02-20T04:37:45.097Z,93.37
2018-02-20T04:38:45.105Z,93.66
2018-02-20T04:39:45.116Z,93.84
2018-02-20T04:40:45.124Z,94.32
2018-02-20T04:41:45.135Z,94.22
2018-02-20T04:42:45.144Z,93.94
2018-02-20T04:43:45.154Z,94.41
2018-02-20T04:44:45.162Z,94.22
2018-02-20T04:45:45.170Z,94.32
2018-02-20T04:46:45.187Z,94.41
2018-02-20T04:47:45.190Z,94.22
2018-02-20T04:48:45.197Z,94.32
2018-02-20T04:49:45.207Z,94.22
2018-02-20T04:50:45.217Z,93.37
2018-02-20T04:51:45.227Z,93.28
2018-02-20T04:52:45.236Z,93.75
2018-02-20T04:53:45.248Z,93.47
2018-02-20T04:54:45.255Z,93.37
2018-02-20T04:55:45.263Z,93.56
2018-02-20T04:56:45.273Z,93.47
2018-02-20T04:57:45.283Z,93.18
2018-02-20T04:58:45.295Z,93.75
2018-02-20T04:59:45.301Z,93.84
2018-02-20T05:00:45.310Z,94.60
2018-02-20T05:01:45.370Z,94.03
2018-02-20T05:02:45.331Z,94.32
2018-02-20T05:03:45.338Z,94.13
2018-02-20T05:04:45.346Z,94.22
2018-02-20T05:05:45.357Z,94.41
2018-02-20T05:06:45.367Z,93.84
2018-02-20T05:07:45.375Z,94.22
2018-02-20T05:08:45.384Z,94.60
2018-02-20T05:09:45.393Z,94.51
2018-02-20T05:10:45.403Z,94.79
2018-02-20T05:11:45.412Z,94.70
2018-02-20T05:12:45.423Z,94.22
2018-02-20T05:13:45.432Z,94.51
2018-02-20T05:14:45.443Z,94.51
2018-02-20T05:15:45.451Z,95.54
2018-02-20T05:16:45.460Z,95.07
2018-02-20T05:17:45.471Z,95.26
2018-02-20T05:18:45.478Z,95.36
2018-02-20T05:19:45.491Z,95.45
2018-02-20T05:20:45.499Z,95.07
2018-02-20T05:21:45.505Z,95.54
2018-02-20T05:22:45.516Z,95.26
2018-02-20T05:23:45.523Z,95.07
2018-02-20T05:24:45.532Z,94.89
2018-02-20T05:25:45.541Z,95.07
2018-02-20T05:26:45.552Z,95.17
2018-02-20T05:27:45.561Z,95.54
2018-02-20T05:28:45.569Z,95.36
2018-02-20T05:29:45.580Z,95.83
2018-02-20T05:30:45.586Z,95.26
2018-02-20T05:31:45.599Z,95.17
2018-02-20T05:32:45.608Z,94.51
2018-02-20T05:33:45.614Z,95.26
2018-02-20T05:34:45.625Z,95.17
2018-02-20T05:35:45.633Z,95.92
2018-02-20T05:36:45.641Z,95.64
2018-02-20T05:37:45.655Z,95.92
2018-02-20T05:38:45.661Z,95.83
2018-02-20T05:39:45.671Z,96.21
2018-02-20T05:40:45.681Z,95.64
2018-02-20T05:41:45.691Z,95.83
2018-02-20T05:42:45.699Z,96.02
2018-02-20T05:43:45.707Z,95.92
2018-02-20T05:44:45.714Z,95.64
2018-02-20T05:45:45.727Z,95.64
2018-02-20T05:46:45.735Z,96.02
2018-02-20T05:47:45.743Z,96.30
2018-02-20T05:48:45.755Z,96.49
2018-02-20T05:49:45.765Z,95.45
2018-02-20T05:50:45.770Z,96.59
2018-02-20T05:51:45.781Z,96.21
2018-02-20T05:52:45.787Z,96.40
2018-02-20T05:53:45.797Z,96.21
2018-02-20T05:54:45.807Z,96.49
2018-02-20T05:55:45.816Z,95.83
2018-02-20T05:56:45.825Z,95.83
2018-02-20T05:57:45.839Z,95.73
2018-02-20T05:58:45.842Z,95.45
2018-02-20T05:59:45.853Z,95.64
2018-02-20T06:00:45.861Z,95.45
2018-02-20T06:01:45.870Z,95.73
2018-02-20T06:02:45.881Z,95.45
2018-02-20T06:03:45.890Z,95.83
2018-02-20T06:04:45.898Z,95.92
2018-02-20T06:05:45.906Z,95.64
2018-02-20T06:06:45.917Z,95.45
2018-02-20T06:07:45.926Z,95.64
2018-02-20T06:08:45.934Z,95.83
2018-02-20T06:09:45.943Z,95.83
2018-02-20T06:10:45.951Z,95.54
2018-02-20T06:11:45.962Z,96.02
2018-02-20T06:12:45.970Z,96.49
2018-02-20T06:13:45.979Z,96.21
2018-02-20T06:14:45.989Z,96.49
2018-02-20T06:15:45.998Z,96.21
2018-02-20T06:16:46.011Z,96.49
2018-02-20T06:17:46.017Z,96.30
2018-02-20T06:18:46.026Z,96.21
2018-02-20T06:19:46.036Z,96.40
2018-02-20T06:20:46.044Z,96.21
2018-02-20T06:21:46.052Z,96.49
2018-02-20T06:22:46.060Z,96.21
2018-02-20T06:23:46.072Z,96.59
2018-02-20T06:24:46.077Z,97.06
2018-02-20T06:25:46.088Z,96.96
2018-02-20T06:26:46.096Z,96.30
2018-02-20T06:27:46.106Z,96.59
2018-02-20T06:28:46.114Z,96.87
2018-02-20T06:29:46.122Z,96.11
2018-02-20T06:30:46.132Z,96.21
2018-02-20T06:31:46.142Z,96.49
2018-02-20T06:32:46.151Z,96.40
2018-02-20T06:33:46.160Z,95.83
2018-02-20T06:34:46.172Z,95.64
2018-02-20T06:35:46.178Z,95.83
2018-02-20T06:36:46.189Z,96.30
2018-02-20T06:37:46.197Z,96.21
2018-02-20T06:38:46.241Z,96.40
2018-02-20T06:39:46.213Z,96.87
2018-02-20T06:40:46.222Z,97.06
2018-02-20T06:41:46.233Z,97.25
2018-02-20T06:42:46.242Z,96.96
2018-02-20T06:43:46.252Z,96.68
2018-02-20T06:44:46.259Z,96.87
2018-02-20T06:45:46.267Z,96.78
2018-02-20T06:46:46.277Z,97.15
2018-02-20T06:47:46.286Z,97.06
2018-02-20T06:48:46.293Z,96.87
2018-02-20T06:49:46.302Z,96.96
2018-02-20T06:50:46.313Z,96.87
2018-02-20T06:51:46.321Z,96.21
2018-02-20T06:52:46.329Z,96.11
2018-02-20T06:53:46.337Z,96.87
2018-02-20T06:54:46.350Z,96.11
2018-02-20T06:55:46.358Z,97.15
2018-02-20T06:56:46.366Z,96.11
2018-02-20T06:57:46.377Z,95.54
2018-02-20T06:58:46.385Z,95.64
2018-02-20T06:59:46.393Z,95.83
2018-02-20T07:00:46.401Z,95.64
2018-02-20T07:01:46.401Z,95.64
2018-02-20T07:02:46.438Z,95.36
2018-02-20T07:03:46.418Z,95.26
2018-02-20T07:04:46.440Z,95.17
2018-02-20T07:05:46.448Z,95.17
2018-02-20T07:06:46.458Z,95.26
2018-02-20T07:07:46.460Z,94.89
2018-02-20T07:08:46.469Z,94.70
2018-02-20T07:09:46.476Z,94.70
2018-02-20T07:10:46.485Z,94.79
2018-02-20T07:11:46.487Z,94.60
2018-02-20T07:12:46.497Z,94.32
2018-02-20T07:13:46.502Z,94.60
2018-02-20T07:14:46.512Z,94.32
2018-02-20T07:15:46.533Z,94.22
2018-02-20T07:16:46.541Z,94.74
2018-02-20T07:17:46.538Z,94.79
2018-02-20T07:18:46.550Z,94.22
2018-02-20T07:19:46.559Z,94.46
2018-02-20T07:20:46.566Z,94.27
2018-02-20T07:21:46.574Z,94.27
2018-02-20T07:22:46.585Z,93.70
2018-02-20T07:23:46.594Z,93.80
2018-02-20T07:24:46.604Z,94.27
2018-02-20T07:25:46.612Z,94.08
2018-02-20T07:26:46.622Z,93.80
2018-02-20T07:27:46.631Z,93.80
2018-02-20T07:28:46.666Z,93.80
2018-02-20T07:29:46.751Z,93.51
2018-02-20T07:30:46.671Z,93.70
2018-02-20T07:31:46.679Z,93.23
2018-02-20T07:32:46.676Z,93.32
2018-02-20T07:33:46.687Z,92.66
2018-02-20T07:34:46.695Z,93.42
2018-02-20T07:35:46.707Z,93.61
2018-02-20T07:36:46.714Z,92.76
2018-02-20T07:37:46.723Z,92.76
2018-02-20T07:38:46.733Z,92.10
2018-02-20T07:39:46.741Z,92.10
2018-02-20T07:40:46.751Z,92.19
2018-02-20T07:41:46.768Z,92.29
2018-02-20T07:42:46.781Z,92.19
2018-02-20T07:43:46.790Z,92.76
2018-02-20T07:44:46.804Z,92.00
2018-02-20T07:45:46.799Z,92.19
2018-02-20T07:46:46.808Z,91.72
2018-02-20T07:47:46.818Z,92.19
2018-02-20T07:48:46.826Z,92.94
2018-02-20T07:49:46.835Z,92.38
2018-02-20T07:50:46.848Z,92.76
2018-02-20T07:51:46.854Z,92.38
2018-02-20T07:52:46.875Z,92.00
2018-02-20T07:53:46.876Z,92.00
2018-02-20T07:54:46.883Z,91.62
2018-02-20T07:55:46.894Z,92.29
2018-02-20T07:56:46.902Z,92.00
2018-02-20T07:57:46.922Z,92.19
2018-02-20T07:58:46.922Z,91.72
2018-02-20T07:59:46.931Z,91.24
2018-02-20T08:00:46.940Z,91.43
2018-02-20T08:01:46.950Z,91.24
2018-02-20T08:02:46.960Z,90.86
2018-02-20T08:03:46.980Z,90.96
2018-02-20T08:04:46.978Z,90.77
2018-02-20T08:05:46.988Z,91.05
2018-02-20T08:06:47.000Z,90.58
2018-02-20T08:07:47.008Z,91.24
2018-02-20T08:08:47.017Z,91.24
2018-02-20T08:09:47.028Z,90.77
2018-02-20T08:10:47.841Z,90.68
2018-02-20T08:11:47.046Z,91.05
2018-02-20T08:12:47.056Z,90.58
2018-02-20T08:13:47.066Z,90.91
2018-02-20T08:14:47.087Z,91.01
2018-02-20T08:15:47.085Z,91.10
2018-02-20T08:16:47.105Z,91.20
2018-02-20T08:17:47.105Z,90.63
2018-02-20T08:18:47.114Z,90.16
2018-02-20T08:19:47.125Z,90.72
2018-02-20T08:20:47.164Z,90.63
2018-02-20T08:21:47.145Z,89.87
2018-02-20T08:22:47.154Z,90.16
2018-02-20T08:23:47.162Z,90.16
2018-02-20T08:24:47.172Z,90.06
2018-02-20T08:25:47.182Z,89.97
2018-02-20T08:26:47.196Z,89.59
2018-02-20T08:27:47.202Z,89.69
2018-02-20T08:28:47.212Z,89.40
2018-02-20T08:29:47.223Z,89.21
2018-02-20T08:30:47.233Z,88.83
2018-02-20T08:31:47.241Z,89.21
2018-02-20T08:32:47.252Z,88.36
2018-02-20T08:33:47.262Z,88.36
2018-02-20T08:34:47.285Z,88.36
2018-02-20T08:35:47.282Z,88.45
2018-02-20T08:36:47.292Z,88.26
2018-02-20T08:37:47.313Z,88.64
2018-02-20T08:38:47.313Z,88.26
2018-02-20T08:39:47.333Z,88.26
2018-02-20T08:40:47.343Z,88.45
2018-02-20T08:41:47.341Z,87.88
2018-02-20T08:42:47.363Z,87.98
2018-02-20T08:43:47.362Z,87.70
2018-02-20T08:44:47.371Z,87.41
2018-02-20T08:45:47.385Z,87.60
2018-02-20T08:46:47.392Z,87.04
2018-02-20T08:47:47.414Z,87.41
2018-02-20T08:48:47.411Z,87.36
2018-02-20T08:49:47.431Z,87.65
2018-02-20T08:50:47.435Z,87.27
2018-02-20T08:51:47.443Z,86.41
2018-02-20T08:52:47.451Z,87.17
2018-02-20T08:53:47.461Z,87.08
2018-02-20T08:55:47.488Z,86.98
2018-02-20T08:56:47.645Z,86.98
2018-02-20T08:57:47.514Z,86.79
2018-02-20T08:58:47.524Z,86.89
2018-02-20T08:59:47.532Z,86.32
2018-02-20T09:00:47.543Z,86.22
2018-02-20T09:01:47.543Z,86.41
2018-02-20T09:02:47.557Z,86.32
2018-02-20T09:03:47.577Z,86.22
2018-02-20T09:04:47.575Z,86.32
2018-02-20T09:05:47.585Z,86.51
2018-02-20T09:06:47.595Z,86.22
2018-02-20T09:07:47.606Z,85.75
2018-02-20T09:08:47.615Z,86.22
2018-02-20T09:09:47.624Z,85.85
2018-02-20T09:10:47.647Z,85.85
2018-02-20T09:11:47.657Z,85.66
2018-02-20T09:12:47.658Z,85.28
2018-02-20T09:13:47.668Z,85.19
2018-02-20T09:14:47.676Z,85.28
2018-02-20T09:15:47.687Z,85.57
2018-02-20T09:16:47.696Z,85.75
2018-02-20T09:17:47.708Z,85.47
2018-02-20T09:18:47.724Z,85.38
2018-02-20T09:19:47.738Z,85.38
2018-02-20T09:20:47.750Z,84.90
2018-02-20T09:21:47.750Z,84.81
2018-02-20T09:22:47.794Z,84.71
2018-02-20T09:23:47.772Z,84.61
2018-02-20T09:24:47.783Z,84.52
2018-02-20T09:25:47.802Z,85.09
2018-02-20T09:26:47.804Z,85.00
2018-02-20T09:27:47.824Z,85.19
2018-02-20T09:28:48.145Z,85.04
2018-02-20T09:29:47.832Z,84.38
2018-02-20T09:30:47.843Z,84.38
2018-02-20T09:31:47.856Z,84.09
2018-02-20T09:32:47.867Z,83.52
2018-02-20T09:33:47.876Z,83.52
2018-02-20T09:34:47.899Z,83.90
2018-02-20T09:35:47.907Z,83.90
2018-02-20T09:36:47.908Z,83.90
2018-02-20T09:37:47.915Z,83.71
2018-02-20T09:38:47.927Z,83.71
2018-02-20T09:39:47.939Z,83.14
2018-02-20T09:40:47.949Z,82.76
2018-02-20T09:41:47.959Z,83.24
2018-02-20T09:42:47.973Z,82.76
2018-02-20T09:43:47.985Z,83.14
2018-02-20T09:44:48.001Z,82.86
2018-02-20T09:45:48.013Z,83.05
2018-02-20T09:46:48.015Z,83.05
2018-02-20T09:47:48.025Z,83.24
2018-02-20T09:48:48.037Z,82.48
2018-02-20T09:49:48.045Z,82.39
2018-02-20T09:50:48.164Z,82.20
2018-02-20T09:51:48.065Z,82.48
2018-02-20T09:52:48.077Z,82.20
2018-02-20T09:53:48.088Z,82.43
2018-02-20T09:54:48.104Z,82.14
2018-02-20T09:55:49.610Z,81.86
2018-02-20T09:56:48.130Z,81.57
2018-02-20T09:57:48.132Z,81.29
2018-02-20T09:58:48.143Z,81.10
2018-02-20T09:59:48.152Z,81.10
2018-02-20T10:00:48.163Z,80.91
2018-02-20T10:01:48.173Z,80.44
2018-02-20T10:02:48.185Z,80.34
2018-02-20T10:03:48.203Z,80.63
2018-02-20T10:04:48.201Z,80.63
2018-02-20T10:05:48.223Z,81.20
2018-02-20T10:06:48.229Z,80.44
2018-02-20T10:07:48.235Z,80.53
2018-02-20T10:08:48.245Z,80.82
2018-02-20T10:09:48.255Z,80.34
2018-02-20T10:10:48.268Z,79.96
2018-02-20T10:11:48.379Z,80.25
2018-02-20T10:12:48.315Z,79.49
2018-02-20T10:13:48.329Z,79.11
2018-02-20T10:14:48.310Z,79.58
2018-02-20T10:15:48.322Z,79.30
2018-02-20T10:16:48.334Z,79.87
2018-02-20T10:17:48.358Z,79.21
2018-02-20T10:18:48.354Z,79.87
2018-02-20T10:19:48.365Z,79.30
2018-02-20T10:20:48.375Z,79.02
2018-02-20T10:21:48.387Z,79.21
2018-02-20T10:22:48.534Z,79.21
2018-02-20T10:23:48.410Z,78.73
2018-02-20T10:24:48.431Z,78.54
2018-02-20T10:25:48.433Z,78.26
2018-02-20T10:26:48.440Z,77.97
2018-02-20T10:27:48.457Z,77.88
2018-02-20T10:28:48.472Z,77.50
2018-02-20T10:29:48.475Z,77.54
2018-02-20T10:30:48.497Z,77.83
2018-02-20T10:31:48.497Z,78.02
2018-02-20T10:32:48.509Z,78.20
2018-02-20T10:33:48.669Z,77.83
2018-02-20T10:34:48.543Z,77.54
2018-02-20T10:35:48.553Z,77.45
2018-02-20T10:36:48.550Z,77.25
2018-02-20T10:37:48.561Z,77.16
2018-02-20T10:38:50.932Z,76.97
2018-02-20T10:39:48.595Z,76.87
2018-02-20T10:40:48.596Z,76.68
2018-02-20T10:41:48.617Z,76.40
2018-02-20T10:42:48.628Z,76.21
2018-02-20T10:43:48.639Z,75.93
2018-02-20T10:44:48.649Z,75.93
2018-02-20T10:45:48.661Z,76.40
2018-02-20T10:46:48.662Z,75.84
2018-02-20T10:47:48.672Z,75.64
2018-02-20T10:48:48.683Z,75.17
2018-02-20T10:49:48.706Z,74.51
2018-02-20T10:50:48.800Z,74.51
2018-02-20T10:51:48.718Z,74.98
2018-02-20T10:52:48.740Z,74.98
2018-02-20T10:53:48.751Z,74.51
2018-02-20T10:54:48.752Z,74.60
2018-02-20T10:55:48.763Z,74.79
2018-02-20T10:56:48.773Z,74.41
2018-02-20T10:57:48.791Z,74.41
2018-02-20T10:58:48.809Z,74.51
2018-02-20T10:59:49.033Z,74.79
2018-02-20T11:00:48.819Z,75.26
2018-02-20T11:01:48.842Z,74.41
2018-02-20T11:02:48.843Z,74.69
2018-02-20T11:03:48.854Z,74.41
2018-02-20T11:04:48.865Z,74.41
2018-02-20T11:05:48.875Z,74.41
2018-02-20T11:06:48.888Z,74.60
2018-02-20T11:07:49.743Z,74.41
2018-02-20T11:08:48.923Z,73.37
2018-02-20T11:09:48.924Z,73.18
2018-02-20T11:10:48.938Z,72.71
2018-02-20T11:11:48.946Z,72.80
2018-02-20T11:12:48.960Z,72.80
2018-02-20T11:13:48.969Z,72.80
2018-02-20T11:14:48.985Z,73.08
2018-02-20T11:15:48.992Z,73.75
2018-02-20T11:16:51.895Z,73.65
2018-02-20T11:17:49.025Z,74.03
2018-02-20T11:18:49.026Z,73.27
2018-02-20T11:19:49.038Z,73.46
2018-02-20T11:20:49.049Z,73.27
2018-02-20T11:21:49.061Z,73.56
2018-02-20T11:22:49.352Z,73.46
2018-02-20T11:23:49.082Z,73.37
2018-02-20T11:24:49.096Z,72.89
2018-02-20T11:25:49.106Z,73.46
2018-02-20T11:26:49.560Z,73.08
2018-02-20T11:27:49.131Z,73.03
2018-02-20T11:28:49.141Z,72.74
2018-02-20T11:29:49.594Z,72.71
2018-02-20T11:30:49.164Z,72.80
2018-02-20T11:31:49.348Z,73.41
2018-02-20T11:32:49.188Z,72.84
2018-02-20T11:33:49.200Z,72.84
2018-02-20T11:34:49.211Z,72.55
2018-02-20T11:35:49.223Z,72.64
2018-02-20T11:36:49.234Z,72.74
2018-02-20T11:37:50.291Z,72.55
2018-02-20T11:38:49.259Z,72.36
2018-02-20T11:39:49.269Z,71.51
2018-02-20T11:40:49.293Z,71.13
2018-02-20T11:41:49.293Z,71.51
2018-02-20T11:42:49.395Z,70.65
2018-02-20T11:43:49.382Z,70.75
2018-02-20T11:44:50.033Z,70.65
2018-02-20T11:45:50.029Z,71.22
2018-02-20T11:46:49.570Z,70.84
2018-02-20T11:47:49.418Z,70.56
2018-02-20T11:48:49.378Z,70.65
2018-02-20T11:49:49.389Z,70.47
2018-02-20T11:50:49.405Z,70.94
2018-02-20T11:51:49.416Z,70.59
2018-02-20T11:52:49.430Z,70.18
2018-02-20T11:53:49.451Z,68.60
2018-02-20T11:54:49.453Z,67.65
2018-02-20T11:55:49.475Z,67.18
2018-02-20T11:56:49.478Z,66.42
2018-02-20T11:57:52.035Z,66.04
2018-02-20T11:58:49.503Z,65.66
2018-02-20T11:59:49.540Z,64.90
2018-02-20T12:00:49.533Z,64.90
2018-02-20T12:01:49.549Z,64.62
2018-02-20T12:02:49.554Z,64.52
2018-02-20T12:03:49.567Z,64.71
2018-02-20T12:04:49.592Z,65.09
2018-02-20T12:05:49.589Z,65.85
2018-02-20T12:06:49.601Z,66.52
2018-02-20T12:07:49.616Z,66.23
2018-02-20T12:08:49.625Z,66.33
2018-02-20T12:09:49.652Z,66.14
2018-02-20T12:10:49.652Z,66.71
2018-02-20T12:11:49.666Z,66.42
2018-02-20T12:12:49.678Z,65.95
2018-02-20T12:13:49.690Z,65.47
2018-02-20T12:14:49.703Z,64.71
2018-02-20T12:15:49.717Z,64.52
2018-02-20T12:16:49.729Z,63.86
2018-02-20T12:17:49.741Z,63.95
2018-02-20T12:18:49.756Z,63.95
2018-02-20T12:19:49.767Z,63.95
2018-02-20T12:20:49.779Z,63.67
2018-02-20T12:21:49.793Z,64.14
2018-02-20T12:22:49.809Z,64.05
2018-02-20T12:23:49.820Z,63.76
2018-02-20T12:24:49.829Z,63.60
2018-02-20T12:25:49.843Z,62.53
2018-02-20T12:26:49.856Z,62.62
2018-02-20T12:27:49.873Z,62.34
2018-02-20T12:28:49.889Z,62.24
2018-02-20T12:29:49.906Z,63.10
2018-02-20T12:30:50.079Z,63.29
2018-02-20T12:31:49.944Z,63.39
2018-02-20T12:32:49.934Z,63.29
2018-02-20T12:33:49.946Z,63.39
2018-02-20T12:34:49.959Z,62.91
2018-02-20T12:35:50.032Z,62.82
2018-02-20T12:36:49.985Z,62.24
2018-02-20T12:37:49.996Z,63.48
2018-02-20T12:38:50.008Z,63.57
2018-02-20T12:39:50.020Z,63.10
2018-02-20T12:40:50.037Z,63.10
2018-02-20T12:41:50.048Z,63.39
2018-02-20T12:42:50.064Z,63.39
2018-02-20T12:43:50.074Z,64.33
2018-02-20T12:44:50.085Z,63.95
2018-02-20T12:45:50.099Z,62.62
2018-02-20T12:46:50.111Z,63.39
2018-02-20T12:47:50.123Z,63.29
2018-02-20T12:48:50.136Z,63.29
2018-02-20T12:49:50.149Z,63.20
2018-02-20T12:50:50.161Z,63.39
2018-02-20T12:51:50.175Z,63.29
2018-02-20T12:52:50.184Z,63.29
2018-02-20T12:53:50.298Z,63.48